Time;durP1;ratioP1;P1;durP2;ratioP2;P2;SDS_P1;SDS_P2;PMS_P1;PMS_P2;Temp;Humidity;BMP_temperature;BMP_pressure;BME280_temperature;BME280_humidity;BME280_pressure;Samples;Min_cycle;Max_cycle;Signal;HPM_P1;HPM_P2
2021/08/30 00:00:39;;;;;;;8.75;5.32;;;15.70;57.40;;;;;;6251747;23;20412;-74
2021/08/30 00:03:05;;;;;;;14.23;5.50;;;15.70;57.10;;;;;;6224781;23;20000;-73
2021/08/30 00:05:31;;;;;;;10.15;5.30;;;15.70;57.90;;;;;;6225163;23;20012;-73
2021/08/30 00:07:57;;;;;;;9.55;4.90;;;15.60;57.40;;;;;;6251573;23;20000;-74
2021/08/30 00:10:23;;;;;;;13.55;5.95;;;15.60;58.10;;;;;;6251791;23;20000;-73
2021/08/30 00:12:49;;;;;;;11.55;5.50;;;15.50;58.80;;;;;;6251781;23;20003;-74
2021/08/30 00:15:15;;;;;;;16.25;7.05;;;15.60;59.20;;;;;;6251077;23;20004;-74
2021/08/30 00:17:42;;;;;;;10.88;6.32;;;15.60;64.20;;;;;;6224819;23;20008;-73
2021/08/30 00:20:12;;;;;;;14.07;6.38;;;15.50;63.30;;;;;;6251654;23;20001;-73
2021/08/30 00:22:39;;;;;;;13.07;6.38;;;15.50;66.10;;;;;;6250499;23;20024;-73
2021/08/30 00:25:06;;;;;;;18.50;7.10;;;15.50;65.00;;;;;;6251550;23;20000;-73
2021/08/30 00:27:31;;;;;;;12.38;6.55;;;15.40;65.40;;;;;;6224435;23;20340;-73
2021/08/30 00:29:57;;;;;;;14.43;7.43;;;15.40;64.30;;;;;;6251408;23;20079;-73
2021/08/30 00:32:24;;;;;;;14.82;7.15;;;15.30;68.00;;;;;;6251570;23;20015;-73
2021/08/30 00:34:49;;;;;;;11.05;6.47;;;15.30;68.30;;;;;;6251410;23;20004;-73
2021/08/30 00:37:15;;;;;;;12.98;6.43;;;15.30;67.80;;;;;;6251172;23;19996;-74
2021/08/30 00:39:41;;;;;;;14.65;6.30;;;15.30;67.20;;;;;;6251311;23;20304;-73
2021/08/30 00:42:07;;;;;;;12.48;5.90;;;15.30;64.60;;;;;;6224357;23;20069;-74
2021/08/30 00:44:34;;;;;;;14.50;6.40;;;15.30;63.10;;;;;;6251173;23;20004;-73
2021/08/30 00:47:00;;;;;;;11.00;5.57;;;15.20;61.90;;;;;;6251259;23;20011;-74
2021/08/30 00:49:26;;;;;;;11.50;5.50;;;15.20;61.10;;;;;;6224696;23;20004;-74
2021/08/30 00:51:52;;;;;;;11.93;5.47;;;15.10;60.50;;;;;;6251086;23;20024;-74
2021/08/30 00:54:18;;;;;;;13.05;5.95;;;15.10;60.40;;;;;;6251192;23;20007;-73
2021/08/30 00:56:46;;;;;;;12.05;5.90;;;15.10;60.10;;;;;;6251170;23;20019;-73
2021/08/30 00:59:11;;;;;;;11.88;5.80;;;15.10;60.40;;;;;;6251400;23;20316;-73
2021/08/30 01:01:38;;;;;;;13.35;5.95;;;15.00;59.80;;;;;;6251190;23;20007;-74
2021/08/30 01:04:07;;;;;;;9.18;4.88;;;15.10;60.40;;;;;;6251390;23;20000;-74
2021/08/30 01:06:46;;;;;;;10.00;5.63;;;15.00;59.20;;;;;;6250737;23;20000;-73
2021/08/30 01:09:24;;;;;;;10.73;5.70;;;15.00;58.90;;;;;;6251100;23;20035;-74
2021/08/30 01:12:09;;;;;;;12.60;5.35;;;15.00;58.90;;;;;;6251198;23;20004;-73
2021/08/30 01:14:44;;;;;;;13.90;5.40;;;14.90;58.80;;;;;;6250862;23;20008;-73
2021/08/30 01:17:10;;;;;;;12.60;5.30;;;14.90;58.80;;;;;;6224014;23;20522;-73
2021/08/30 01:19:48;;;;;;;10.18;5.47;;;14.90;58.80;;;;;;6251037;23;20450;-73
2021/08/30 01:22:15;;;;;;;9.90;5.28;;;14.90;58.60;;;;;;6250912;23;20067;-73
2021/08/30 01:24:42;;;;;;;14.25;5.68;;;14.80;58.70;;;;;;6250891;23;20061;-73
2021/08/30 01:27:08;;;;;;;10.90;5.35;;;14.80;58.70;;;;;;6250841;23;20000;-73
2021/08/30 01:29:52;;;;;;;9.52;4.60;;;14.80;58.80;;;;;;6224155;23;20000;-73
2021/08/30 01:32:39;;;;;;;12.35;5.22;;;14.80;58.60;;;;;;6251068;23;20000;-73
2021/08/30 01:35:17;;;;;;;14.77;5.85;;;14.80;59.10;;;;;;6223696;23;20005;-73
2021/08/30 01:37:45;;;;;;;9.57;4.65;;;14.70;58.70;;;;;;6250473;23;20011;-73
2021/08/30 01:40:13;;;;;;;14.27;5.13;;;14.70;58.80;;;;;;6251350;23;20000;-73
2021/08/30 01:42:42;;;;;;;12.52;5.47;;;14.70;59.00;;;;;;6250739;23;20411;-73
2021/08/30 01:45:13;;;;;;;11.82;4.97;;;14.70;59.30;;;;;;6250691;23;20000;-73
2021/08/30 01:47:42;;;;;;;10.93;5.30;;;14.70;60.10;;;;;;6250835;23;20001;-73
2021/08/30 01:50:10;;;;;;;10.20;5.13;;;14.60;59.30;;;;;;6250770;23;20434;-73
2021/08/30 01:52:38;;;;;;;12.82;5.00;;;14.60;59.30;;;;;;6250556;23;20060;-73
2021/08/30 02:03:07;;;;;;;11.40;4.93;;;14.50;59.20;;;;;;6250677;23;20010;-73
2021/08/30 02:05:33;;;;;;;11.77;4.70;;;14.50;59.10;;;;;;6250980;23;20475;-73
2021/08/30 02:07:59;;;;;;;10.63;5.47;;;14.50;59.00;;;;;;6250374;23;20557;-73
2021/08/30 02:10:25;;;;;;;9.30;5.22;;;14.50;59.00;;;;;;6223906;23;20004;-73
2021/08/30 02:12:51;;;;;;;11.55;4.93;;;14.40;59.00;;;;;;6250792;23;20008;-73
2021/08/30 02:15:17;;;;;;;8.85;4.55;;;14.50;59.70;;;;;;6223823;23;20058;-73
2021/08/30 02:17:47;;;;;;;10.82;4.38;;;14.40;59.50;;;;;;6252253;23;20046;-73
2021/08/30 02:20:17;;;;;;;9.73;4.65;;;14.40;59.50;;;;;;6252908;23;20412;-73
2021/08/30 02:22:44;;;;;;;9.68;4.75;;;14.40;59.80;;;;;;6225680;23;20004;-73
2021/08/30 02:25:18;;;;;;;9.95;4.93;;;14.30;59.40;;;;;;6252632;23;20019;-74
2021/08/30 02:28:02;;;;;;;12.25;5.45;;;14.30;59.60;;;;;;6252648;23;20004;-74
2021/08/30 02:30:37;;;;;;;9.57;4.47;;;14.30;60.30;;;;;;6252887;23;20075;-73
2021/08/30 02:33:06;;;;;;;11.95;4.50;;;14.30;59.90;;;;;;6226030;23;20008;-74
2021/08/30 02:35:35;;;;;;;9.25;4.13;;;14.20;59.60;;;;;;6252522;23;20011;-73
2021/08/30 02:38:02;;;;;;;10.05;4.90;;;14.30;59.40;;;;;;6252635;23;20028;-73
2021/08/30 02:40:29;;;;;;;12.38;4.53;;;14.20;62.60;;;;;;6252614;23;20000;-73
2021/08/30 02:42:57;;;;;;;9.48;4.57;;;14.20;60.70;;;;;;6251965;23;20444;-74
2021/08/30 02:45:24;;;;;;;9.52;4.57;;;14.20;61.70;;;;;;6252504;23;20004;-74
2021/08/30 02:47:51;;;;;;;13.23;4.40;;;14.20;60.70;;;;;;6225865;23;20008;-73
2021/08/30 02:50:17;;;;;;;10.60;5.25;;;14.10;60.30;;;;;;6252455;23;20003;-74
2021/08/30 02:52:46;;;;;;;8.68;4.05;;;14.10;60.10;;;;;;6225208;23;20054;-73
2021/08/30 02:55:12;;;;;;;9.88;4.60;;;14.10;60.10;;;;;;6252315;23;20051;-73
2021/08/30 02:57:39;;;;;;;8.48;3.97;;;14.10;59.80;;;;;;6225788;23;20055;-73
2021/08/30 03:00:06;;;;;;;8.50;3.60;;;14.10;59.70;;;;;;6252140;23;20451;-73
2021/08/30 03:02:33;;;;;;;8.82;4.22;;;14.00;59.60;;;;;;6252401;23;20000;-73
2021/08/30 03:05:00;;;;;;;9.20;3.97;;;14.00;59.50;;;;;;6252395;23;20000;-73
2021/08/30 03:07:28;;;;;;;11.57;4.47;;;14.00;59.30;;;;;;6252082;23;20001;-74
2021/08/30 03:09:56;;;;;;;9.07;3.97;;;14.00;59.90;;;;;;6252028;23;20027;-73
2021/08/30 03:12:24;;;;;;;8.93;4.13;;;14.00;59.30;;;;;;6252261;23;20520;-73
2021/08/30 03:14:52;;;;;;;11.85;4.25;;;13.90;59.50;;;;;;6251935;23;20004;-74
2021/08/30 03:17:20;;;;;;;11.73;4.10;;;13.90;59.60;;;;;;6252137;23;19996;-73
2021/08/30 03:19:48;;;;;;;9.25;4.60;;;13.90;59.60;;;;;;6252191;23;20000;-73
2021/08/30 03:22:16;;;;;;;11.43;4.18;;;13.90;60.30;;;;;;6252010;23;20007;-73
2021/08/30 03:24:43;;;;;;;11.10;4.43;;;13.90;60.30;;;;;;6252047;23;20126;-73
2021/08/30 03:27:11;;;;;;;13.10;5.10;;;13.80;60.10;;;;;;6225389;23;20079;-73
2021/08/30 03:29:39;;;;;;;10.93;4.55;;;13.80;61.60;;;;;;6251526;23;20026;-73
2021/08/30 03:32:07;;;;;;;12.77;4.88;;;13.80;61.40;;;;;;6252069;23;20028;-75
2021/08/30 03:34:35;;;;;;;11.55;4.47;;;13.80;61.50;;;;;;6251998;23;20435;-76
2021/08/30 03:37:02;;;;;;;10.00;4.10;;;13.80;60.60;;;;;;6251678;23;20093;-76
2021/08/30 03:39:28;;;;;;;12.60;4.72;;;13.80;62.70;;;;;;6252064;23;20022;-76
2021/08/30 03:41:57;;;;;;;10.48;4.90;;;13.70;61.50;;;;;;6220009;23;20016;-75
2021/08/30 03:44:24;;;;;;;11.20;4.20;;;13.70;61.10;;;;;;6221645;23;20024;-75
2021/08/30 03:46:54;;;;;;;6.70;3.83;;;13.70;62.60;;;;;;6220199;23;20417;-76
2021/08/30 03:49:23;;;;;;;8.23;4.30;;;13.70;61.50;;;;;;6220272;23;20062;-75
2021/08/30 03:51:51;;;;;;;10.75;3.95;;;13.70;60.90;;;;;;6221340;23;20001;-75
2021/08/30 03:54:17;;;;;;;9.60;4.18;;;13.60;60.80;;;;;;6221473;23;20005;-76
2021/08/30 03:56:44;;;;;;;11.88;4.78;;;13.60;61.20;;;;;;6219811;23;20084;-76
2021/08/30 03:59:10;;;;;;;10.43;4.97;;;13.70;64.20;;;;;;6221470;23;19996;-76
2021/08/30 04:01:42;;;;;;;12.55;5.63;;;13.70;70.60;;;;;;6221441;23;20001;-76
2021/08/30 04:04:15;;;;;;;13.82;5.63;;;13.70;69.80;;;;;;6221607;23;20004;-76
2021/08/30 04:06:43;;;;;;;11.50;5.25;;;13.60;70.50;;;;;;6219271;23;20076;-76
2021/08/30 04:09:09;;;;;;;10.63;4.93;;;13.60;68.20;;;;;;6221650;23;20001;-76
2021/08/30 04:11:35;;;;;;;12.43;5.53;;;13.60;69.40;;;;;;6221682;23;20004;-76
2021/08/30 04:14:01;;;;;;;10.73;4.75;;;13.60;70.30;;;;;;6219303;23;20012;-76
2021/08/30 04:16:27;;;;;;;13.23;6.18;;;13.60;69.30;;;;;;6221290;23;19997;-76
2021/08/30 04:18:53;;;;;;;14.95;5.30;;;13.60;70.20;;;;;;6221363;23;19996;-76
2021/08/30 04:21:18;;;;;;;11.60;4.70;;;13.60;70.00;;;;;;6221453;23;19997;-76
2021/08/30 04:23:44;;;;;;;11.80;4.68;;;13.60;67.50;;;;;;6220891;23;19997;-76
2021/08/30 04:26:10;;;;;;;10.75;4.82;;;13.60;66.50;;;;;;6221247;23;20151;-76
2021/08/30 04:28:36;;;;;;;14.00;5.22;;;13.60;67.60;;;;;;6220950;23;19997;-76
2021/08/30 04:31:02;;;;;;;9.35;4.60;;;13.50;69.60;;;;;;6219630;23;20458;-75
2021/08/30 04:33:28;;;;;;;11.68;4.90;;;13.60;69.70;;;;;;6221361;23;20118;-75
2021/08/30 04:35:54;;;;;;;16.30;5.38;;;13.50;68.50;;;;;;6221135;23;20064;-75
2021/08/30 04:38:19;;;;;;;10.13;4.57;;;13.60;66.90;;;;;;6220743;23;19996;-75
2021/08/30 04:40:45;;;;;;;17.52;5.78;;;13.50;65.70;;;;;;6220742;23;20001;-76
2021/08/30 04:43:12;;;;;;;12.70;5.32;;;13.60;67.20;;;;;;6247915;23;20016;-75
2021/08/30 04:45:38;;;;;;;15.32;6.20;;;13.60;72.20;;;;;;6251450;23;20339;-75
2021/08/30 04:48:05;;;;;;;12.70;5.63;;;13.60;69.30;;;;;;6251231;23;20672;-76
2021/08/30 04:50:31;;;;;;;12.65;5.47;;;13.60;71.80;;;;;;6251349;23;20031;-75
2021/08/30 04:52:57;;;;;;;13.70;6.40;;;13.60;71.10;;;;;;6251053;23;20004;-76
2021/08/30 04:55:23;;;;;;;15.80;6.32;;;13.60;73.00;;;;;;6251264;23;20000;-75
2021/08/30 04:57:48;;;;;;;12.20;5.35;;;13.70;71.60;;;;;;6251024;23;19996;-76
2021/08/30 05:00:15;;;;;;;12.77;5.45;;;13.70;69.80;;;;;;6251277;23;20022;-76
2021/08/30 05:02:41;;;;;;;10.57;5.18;;;13.70;70.80;;;;;;6251208;23;20001;-75
2021/08/30 05:05:07;;;;;;;14.40;5.13;;;13.70;72.60;;;;;;6251279;23;20004;-76
2021/08/30 05:07:33;;;;;;;12.73;5.65;;;13.80;70.90;;;;;;6250826;23;20067;-75
2021/08/30 05:09:58;;;;;;;13.40;6.28;;;13.80;69.90;;;;;;6251217;23;20007;-76
2021/08/30 05:12:33;;;;;;;18.75;5.95;;;13.80;71.30;;;;;;5115123;27;20392;-75
2021/08/30 05:14:59;;;;;;;15.85;6.50;;;13.80;74.80;;;;;;5096594;28;20078;-75
2021/08/30 05:17:25;;;;;;;11.30;6.15;;;13.90;73.20;;;;;;5097912;28;20481;-76
2021/08/30 05:19:50;;;;;;;15.85;5.75;;;13.90;75.10;;;;;;5093745;28;20027;-76
2021/08/30 05:22:16;;;;;;;15.02;5.32;;;13.90;75.50;;;;;;5092628;28;20059;-75
2021/08/30 05:24:42;;;;;;;15.75;7.28;;;13.90;74.70;;;;;;5094689;28;20021;-75
2021/08/30 05:27:08;;;;;;;18.02;6.53;;;13.90;75.70;;;;;;5094388;28;20031;-78
2021/08/30 05:29:34;;;;;;;17.55;7.40;;;13.90;76.20;;;;;;5094138;28;20016;-76
2021/08/30 05:32:00;;;;;;;16.05;6.32;;;13.90;76.60;;;;;;5091864;28;20506;-76
2021/08/30 05:34:26;;;;;;;14.88;6.88;;;13.90;75.80;;;;;;5087766;28;20098;-76
2021/08/30 05:36:51;;;;;;;16.75;6.68;;;13.90;75.40;;;;;;5085443;28;20052;-76
2021/08/30 05:39:17;;;;;;;11.80;5.57;;;13.90;74.70;;;;;;5090674;28;20039;-78
2021/08/30 05:41:43;;;;;;;15.45;6.78;;;13.90;75.70;;;;;;5094273;28;20024;-78
2021/08/30 05:44:09;;;;;;;13.55;6.57;;;14.00;74.80;;;;;;5094383;28;20024;-77
2021/08/30 05:46:35;;;;;;;15.35;5.90;;;13.90;75.50;;;;;;5094185;28;20077;-74
2021/08/30 05:49:01;;;;;;;12.52;5.82;;;13.90;75.90;;;;;;5086419;28;20021;-74
2021/08/30 05:51:27;;;;;;;11.27;6.45;;;14.00;74.70;;;;;;5087965;28;20506;-74
2021/08/30 05:53:53;;;;;;;17.50;6.47;;;14.00;72.20;;;;;;5094124;28;20028;-74
2021/08/30 05:56:18;;;;;;;14.88;6.70;;;14.00;73.90;;;;;;5094079;28;20024;-79
2021/08/30 05:58:44;;;;;;;15.95;6.65;;;14.00;75.40;;;;;;5093990;28;20066;-76
2021/08/30 06:01:10;;;;;;;14.65;6.45;;;14.00;74.50;;;;;;5093979;28;20027;-72
2021/08/30 06:03:36;;;;;;;14.25;6.72;;;14.00;74.90;;;;;;5093953;28;20103;-74
2021/08/30 06:06:03;;;;;;;29.25;7.45;;;14.10;72.50;;;;;;5093950;28;20052;-67
2021/08/30 06:08:29;;;;;;;18.45;7.55;;;14.20;81.00;;;;;;5093880;28;20019;-64
2021/08/30 06:10:56;;;;;;;13.85;5.07;;;14.50;77.80;;;;;;5093677;28;20048;-67
2021/08/30 06:13:23;;;;;;;10.70;4.80;;;15.00;75.60;;;;;;5093734;28;20016;-65
2021/08/30 06:15:49;;;;;;;11.23;4.25;;;15.60;73.50;;;;;;5088429;28;20033;-67
2021/08/30 06:18:15;;;;;;;9.45;4.95;;;16.10;72.10;;;;;;5094015;28;20021;-64
2021/08/30 06:20:41;;;;;;;8.57;4.38;;;16.60;70.80;;;;;;5093703;28;20032;-65
2021/08/30 06:23:07;;;;;;;7.22;3.42;;;17.00;69.90;;;;;;5083778;28;20055;-66
2021/08/30 06:25:33;;;;;;;8.25;3.55;;;17.50;69.20;;;;;;5079557;28;20128;-66
2021/08/30 06:27:59;;;;;;;7.95;3.47;;;17.80;68.40;;;;;;5079289;28;20016;-67
2021/08/30 06:30:25;;;;;;;6.97;3.00;;;18.10;67.80;;;;;;5079634;28;20051;-67
2021/08/30 06:32:52;;;;;;;8.02;3.20;;;18.30;67.10;;;;;;5080406;28;20025;-67
2021/08/30 06:35:18;;;;;;;6.78;3.22;;;18.60;66.60;;;;;;5079742;28;20059;-67
2021/08/30 06:37:44;;;;;;;7.53;3.30;;;18.90;66.10;;;;;;5079880;28;20025;-67
2021/08/30 06:40:11;;;;;;;8.13;3.20;;;19.10;65.70;;;;;;5079932;28;20017;-67
2021/08/30 06:42:37;;;;;;;8.82;3.33;;;19.30;65.20;;;;;;5079966;28;20091;-67
2021/08/30 06:45:04;;;;;;;7.85;3.58;;;19.40;64.80;;;;;;5079248;28;20021;-67
2021/08/30 06:47:30;;;;;;;6.80;3.00;;;19.60;64.40;;;;;;5079421;28;20027;-67
2021/08/30 06:49:56;;;;;;;6.95;2.92;;;19.80;64.10;;;;;;5066017;28;20386;-67
2021/08/30 06:52:22;;;;;;;8.40;3.33;;;19.90;63.80;;;;;;5079595;28;20056;-65
2021/08/30 06:54:49;;;;;;;10.65;3.90;;;20.00;63.50;;;;;;5079468;28;20107;-68
2021/08/30 06:57:15;;;;;;;7.88;3.42;;;20.10;63.20;;;;;;5079653;28;20021;-67
2021/08/30 06:59:40;;;;;;;8.05;3.33;;;20.20;63.00;;;;;;5078839;28;20024;-68
2021/08/30 07:02:06;;;;;;;14.10;5.22;;;20.30;62.70;;;;;;5079288;28;20024;-73
2021/08/30 07:04:32;;;;;;;13.93;7.20;;;20.40;62.70;;;;;;5079169;28;20479;-70
2021/08/30 07:06:58;;;;;;;20.85;10.65;;;20.50;62.50;;;;;;5079207;28;20111;-69
2021/08/30 07:09:24;;;;;;;22.10;12.02;;;20.60;62.40;;;;;;5079110;28;20071;-69
2021/08/30 07:11:51;;;;;;;27.52;13.98;;;20.60;62.20;;;;;;5078597;28;20104;-70
2021/08/30 07:14:17;;;;;;;21.98;13.68;;;20.70;62.10;;;;;;5078593;28;20369;-70
2021/08/30 07:16:44;;;;;;;23.27;13.43;;;20.70;61.90;;;;;;5074384;28;20040;-69
2021/08/30 07:19:10;;;;;;;22.50;12.00;;;20.80;61.80;;;;;;5078761;28;20028;-69
2021/08/30 07:21:35;;;;;;;25.33;12.73;;;20.80;61.70;;;;;;5078856;28;20081;-70
2021/08/30 07:24:01;;;;;;;18.52;10.80;;;20.90;61.60;;;;;;5078306;28;20028;-70
2021/08/30 07:26:27;;;;;;;22.05;11.55;;;20.90;61.50;;;;;;5078918;28;20099;-71
2021/08/30 07:28:53;;;;;;;18.73;10.95;;;20.90;61.40;;;;;;5078187;28;20042;-70
2021/08/30 07:31:19;;;;;;;20.30;10.80;;;21.00;61.40;;;;;;5078485;28;20056;-70
2021/08/30 07:33:45;;;;;;;16.25;9.40;;;21.00;61.30;;;;;;5078263;28;20052;-69
2021/08/30 07:36:11;;;;;;;16.65;9.25;;;21.00;61.20;;;;;;5078608;28;20032;-70
2021/08/30 07:38:38;;;;;;;14.98;8.32;;;21.00;61.10;;;;;;5077944;28;20052;-71
2021/08/30 07:41:04;;;;;;;14.05;7.45;;;21.10;61.10;;;;;;5078619;28;20041;-70
2021/08/30 07:43:30;;;;;;;14.65;7.50;;;21.10;61.00;;;;;;5078024;28;20059;-69
2021/08/30 07:45:59;;;;;;;11.60;6.60;;;21.10;60.90;;;;;;5078464;28;20039;-69
2021/08/30 07:48:25;;;;;;;12.25;6.63;;;21.10;60.90;;;;;;5075692;28;20028;-70
2021/08/30 07:50:51;;;;;;;14.20;6.38;;;21.10;60.80;;;;;;5067348;28;20060;-64
2021/08/30 07:53:17;;;;;;;12.90;6.05;;;21.20;60.90;;;;;;5077984;28;20032;-64
2021/08/30 07:55:42;;;;;;;11.15;6.35;;;21.20;60.80;;;;;;5078337;28;20021;-66
2021/08/30 07:58:08;;;;;;;13.93;8.05;;;21.20;60.80;;;;;;5077473;28;20106;-66
2021/08/30 08:00:34;;;;;;;16.27;9.18;;;21.20;60.70;;;;;;5078357;28;20063;-65
2021/08/30 08:03:00;;;;;;;21.63;9.65;;;21.30;60.70;;;;;;5076481;28;20033;-66
2021/08/30 08:05:26;;;;;;;16.52;9.60;;;21.30;60.70;;;;;;5077653;28;20059;-66
2021/08/30 08:07:52;;;;;;;15.95;9.18;;;21.30;60.60;;;;;;5077773;28;20082;-66
2021/08/30 08:10:18;;;;;;;17.42;9.63;;;21.30;60.50;;;;;;5077933;28;20471;-66
2021/08/30 08:12:44;;;;;;;18.75;9.88;;;21.40;60.50;;;;;;5077824;28;20051;-65
2021/08/30 08:15:10;;;;;;;14.40;8.35;;;21.40;60.50;;;;;;5076994;28;20020;-66
2021/08/30 08:17:36;;;;;;;13.43;7.95;;;21.40;60.40;;;;;;5073627;28;20031;-66
2021/08/30 08:20:04;;;;;;;11.95;6.97;;;21.40;60.40;;;;;;5077259;28;20470;-64
2021/08/30 08:22:34;;;;;;;12.93;6.38;;;21.50;60.40;;;;;;5076251;28;20055;-66
2021/08/30 08:25:01;;;;;;;15.10;6.85;;;21.50;60.30;;;;;;5076702;28;20054;-64
2021/08/30 08:27:27;;;;;;;10.30;6.30;;;21.50;60.30;;;;;;5076483;28;20082;-65
2021/08/30 08:29:53;;;;;;;11.73;5.78;;;21.50;60.30;;;;;;5076546;28;20024;-66
2021/08/30 08:32:19;;;;;;;12.80;6.18;;;21.50;60.20;;;;;;5077278;28;20376;-69
2021/08/30 08:34:45;;;;;;;9.95;5.50;;;21.60;60.20;;;;;;5077710;28;20581;-74
2021/08/30 08:37:10;;;;;;;9.90;4.70;;;21.60;60.40;;;;;;5077508;28;20020;-70
2021/08/30 08:39:36;;;;;;;15.77;7.35;;;21.60;60.40;;;;;;5077212;28;20024;-64
2021/08/30 08:42:03;;;;;;;14.23;8.57;;;21.70;60.40;;;;;;5077418;28;20089;-68
2021/08/30 08:44:29;;;;;;;17.52;9.98;;;21.70;60.40;;;;;;5076527;28;20084;-68
2021/08/30 08:46:55;;;;;;;17.33;10.75;;;21.80;60.50;;;;;;5076678;28;20024;-71
2021/08/30 08:49:23;;;;;;;18.30;9.77;;;21.80;60.40;;;;;;5067382;28;20025;-69
2021/08/30 08:51:49;;;;;;;22.27;13.10;;;21.80;60.40;;;;;;5073601;28;20042;-71
2021/08/30 08:54:15;;;;;;;19.15;11.68;;;21.90;60.40;;;;;;5077045;28;20459;-71
2021/08/30 08:56:41;;;;;;;20.23;11.60;;;21.90;60.30;;;;;;5076741;28;20043;-71
2021/08/30 08:59:07;;;;;;;17.20;10.38;;;21.90;60.20;;;;;;5076974;28;20027;-70
2021/08/30 09:01:37;;;;;;;17.77;9.40;;;21.90;60.20;;;;;;5076671;28;20021;-72
2021/08/30 09:04:04;;;;;;;15.13;8.20;;;21.90;60.10;;;;;;5076689;28;20125;-71
2021/08/30 09:06:38;;;;;;;16.00;8.80;;;21.90;60.00;;;;;;5074027;28;20035;-73
2021/08/30 09:09:14;;;;;;;14.90;8.00;;;21.90;60.00;;;;;;5074323;28;20104;-72
2021/08/30 09:11:47;;;;;;;11.85;6.70;;;21.90;60.00;;;;;;5071925;28;20116;-72
2021/08/30 09:14:22;;;;;;;19.10;6.57;;;21.90;59.90;;;;;;5075530;28;20493;-72
2021/08/30 09:16:49;;;;;;;13.57;6.38;;;21.90;59.90;;;;;;5075187;28;20112;-72
2021/08/30 09:19:17;;;;;;;10.63;5.88;;;21.90;59.90;;;;;;5075655;28;20025;-72
2021/08/30 09:21:47;;;;;;;8.60;5.03;;;21.90;60.60;;;;;;5075921;28;20037;-73
2021/08/30 09:24:15;;;;;;;8.35;5.00;;;22.00;60.00;;;;;;5076562;28;20029;-72
2021/08/30 09:26:55;;;;;;;10.05;4.50;;;22.00;60.00;;;;;;5075500;28;20663;-73
2021/08/30 09:29:24;;;;;;;7.28;4.05;;;22.10;60.00;;;;;;5075496;28;20032;-73
2021/08/30 09:32:11;;;;;;;9.85;4.68;;;22.10;60.10;;;;;;5076616;28;20028;-72
2021/08/30 09:34:47;;;;;;;9.00;5.25;;;22.10;60.10;;;;;;5076935;28;20032;-72
2021/08/30 09:37:24;;;;;;;8.95;4.18;;;22.20;60.20;;;;;;5075698;28;20025;-72
2021/08/30 09:39:53;;;;;;;10.02;4.05;;;22.40;60.30;;;;;;5076332;28;20029;-73
2021/08/30 09:42:19;;;;;;;8.23;3.80;;;22.40;60.30;;;;;;5076240;28;20031;-72
2021/08/30 09:44:45;;;;;;;8.45;3.90;;;22.50;60.30;;;;;;5075946;28;20032;-72
2021/08/30 09:47:13;;;;;;;7.68;3.40;;;22.50;60.40;;;;;;5074347;28;20036;-69
2021/08/30 09:49:40;;;;;;;6.25;3.78;;;22.50;60.20;;;;;;5072655;28;20054;-71
2021/08/30 09:52:06;;;;;;;7.00;3.72;;;22.50;60.10;;;;;;5075331;28;20028;-72
2021/08/30 09:54:32;;;;;;;7.85;3.90;;;22.50;60.00;;;;;;5075565;28;20048;-72
2021/08/30 09:56:59;;;;;;;7.45;3.70;;;22.50;60.00;;;;;;5081781;28;20020;-72
2021/08/30 09:59:26;;;;;;;8.68;3.50;;;22.50;60.00;;;;;;5079967;28;20013;-73
2021/08/30 10:01:54;;;;;;;8.23;3.85;;;22.50;59.90;;;;;;5080170;28;20125;-72
2021/08/30 10:04:21;;;;;;;9.68;3.25;;;22.50;59.80;;;;;;5080636;28;20475;-73
2021/08/30 10:06:50;;;;;;;5.60;2.83;;;22.50;59.80;;;;;;5080237;28;20028;-70
2021/08/30 10:09:20;;;;;;;7.13;3.38;;;22.50;59.80;;;;;;5080265;28;20028;-72
2021/08/30 10:11:48;;;;;;;13.65;4.00;;;22.50;59.70;;;;;;5079944;28;20071;-72
2021/08/30 10:14:19;;;;;;;8.48;4.50;;;22.50;59.80;;;;;;5079976;28;20040;-72
2021/08/30 10:16:47;;;;;;;7.97;4.38;;;22.60;60.00;;;;;;5069308;28;20020;-68
2021/08/30 10:19:23;;;;;;;7.55;4.30;;;22.70;60.00;;;;;;5078237;28;20028;-71
2021/08/30 10:21:49;;;;;;;8.52;4.50;;;22.70;60.00;;;;;;5079847;28;20039;-72
2021/08/30 10:24:17;;;;;;;7.68;4.05;;;22.80;60.10;;;;;;5079429;28;20048;-71
2021/08/30 10:26:45;;;;;;;7.70;4.22;;;22.80;60.10;;;;;;5079654;28;20037;-72
2021/08/30 10:29:12;;;;;;;9.60;4.65;;;22.90;60.20;;;;;;5079617;28;20025;-67
2021/08/30 10:31:51;;;;;;;9.25;4.93;;;23.00;60.40;;;;;;5079695;28;20056;-69
2021/08/30 10:34:30;;;;;;;10.40;5.35;;;23.10;60.50;;;;;;5076631;28;20021;-69
2021/08/30 10:36:57;;;;;;;9.65;4.85;;;23.20;60.60;;;;;;5079359;28;20017;-68
2021/08/30 10:39:35;;;;;;;8.95;5.13;;;23.20;60.50;;;;;;5079539;28;20025;-71
2021/08/30 10:42:02;;;;;;;13.18;5.53;;;23.20;60.40;;;;;;5079517;28;20494;-66
2021/08/30 10:44:28;;;;;;;21.83;12.50;;;23.20;60.30;;;;;;5066185;28;20170;-60
2021/08/30 10:46:56;;;;;;;26.10;13.20;;;23.30;60.30;;;;;;5079591;28;20060;-73
2021/08/30 10:49:32;;;;;;;20.33;12.50;;;23.30;60.30;;;;;;5077782;28;20042;-70
2021/08/30 10:52:10;;;;;;;20.58;11.77;;;23.30;60.20;;;;;;5079080;28;20025;-71
2021/08/30 10:54:47;;;;;;;19.08;11.23;;;23.30;60.20;;;;;;5078953;28;20098;-67
2021/08/30 10:57:14;;;;;;;20.95;12.18;;;23.30;60.30;;;;;;5079276;28;20017;-70
2021/08/30 10:59:42;;;;;;;19.83;11.20;;;23.30;60.30;;;;;;5079428;28;20078;-69
2021/08/30 11:02:08;;;;;;;18.85;10.57;;;23.30;60.40;;;;;;5079412;28;20025;-65
2021/08/30 11:04:39;;;;;;;23.17;12.25;;;23.50;60.80;;;;;;5079114;28;20024;-66
2021/08/30 11:07:07;;;;;;;20.70;11.98;;;23.60;60.90;;;;;;5075998;28;20115;-63
2021/08/30 11:09:42;;;;;;;23.05;11.40;;;23.60;60.90;;;;;;5078470;28;20102;-64
2021/08/30 11:12:10;;;;;;;19.85;10.82;;;23.70;60.80;;;;;;5078884;28;20055;-64
2021/08/30 11:14:36;;;;;;;17.70;9.98;;;23.80;60.90;;;;;;5078692;28;20043;-63
2021/08/30 11:17:04;;;;;;;13.48;8.50;;;23.80;60.80;;;;;;5069390;28;20581;-67
2021/08/30 11:19:30;;;;;;;15.38;7.82;;;23.80;60.70;;;;;;5079623;28;20500;-67
2021/08/30 11:21:58;;;;;;;11.90;7.53;;;23.80;60.60;;;;;;5078600;28;20024;-66
2021/08/30 11:24:35;;;;;;;20.48;7.43;;;23.80;60.40;;;;;;5077838;28;20487;-66
2021/08/30 11:27:22;;;;;;;11.25;6.75;;;23.80;60.40;;;;;;5077262;28;20036;-66
2021/08/30 11:29:59;;;;;;;10.13;5.13;;;23.80;60.20;;;;;;5078361;28;20429;-69
2021/08/30 11:32:29;;;;;;;11.02;4.60;;;23.70;60.10;;;;;;5065300;28;20032;-71
2021/08/30 11:34:57;;;;;;;14.45;9.05;;;23.70;60.00;;;;;;5078541;28;20024;-71
2021/08/30 11:37:26;;;;;;;35.17;21.20;;;23.60;59.80;;;;;;5078467;28;20020;-70
2021/08/30 11:39:54;;;;;;;32.80;22.08;;;23.60;59.80;;;;;;5077996;28;20024;-72
2021/08/30 11:42:22;;;;;;;29.25;19.15;;;23.60;59.60;;;;;;5077804;28;20407;-71
2021/08/30 11:44:49;;;;;;;25.55;16.67;;;23.50;59.80;;;;;;5077687;28;20033;-70
2021/08/30 11:47:17;;;;;;;18.80;11.77;;;23.50;59.50;;;;;;5077841;28;20025;-71
2021/08/30 11:49:49;;;;;;;14.25;8.38;;;23.40;59.50;;;;;;5072092;28;20056;-71
2021/08/30 11:52:16;;;;;;;;;;;23.40;59.40;;;;;;5076547;28;20040;-70
2021/08/30 11:55:02;;;;;;;10.23;6.18;;;23.30;59.20;;;;;;5077944;28;19927;-71
2021/08/30 11:57:42;;;;;;;11.50;5.40;;;23.30;59.20;;;;;;5077924;28;20029;-70
2021/08/30 12:00:22;;;;;;;9.60;5.00;;;23.30;59.20;;;;;;5085522;28;20028;-71
2021/08/30 12:02:55;;;;;;;9.65;4.45;;;23.30;59.30;;;;;;5077551;28;20107;-71
2021/08/30 12:05:24;;;;;;;8.82;4.13;;;23.30;59.40;;;;;;5077723;28;20086;-69
2021/08/30 12:07:52;;;;;;;7.78;3.78;;;23.30;59.60;;;;;;5077649;28;20024;-69
2021/08/30 12:10:18;;;;;;;7.68;3.78;;;23.20;59.50;;;;;;5077225;28;20051;-70
2021/08/30 12:12:53;;;;;;;6.60;3.35;;;23.20;59.50;;;;;;5077492;28;20019;-69
2021/08/30 12:15:23;;;;;;;5.93;3.45;;;23.20;59.50;;;;;;5074964;28;20453;-70
2021/08/30 12:17:51;;;;;;;6.05;3.55;;;23.20;59.30;;;;;;5070949;28;20021;-70
2021/08/30 12:20:20;;;;;;;8.65;3.03;;;23.10;59.30;;;;;;5065828;28;20453;-68
2021/08/30 12:22:58;;;;;;;6.50;3.50;;;23.10;59.40;;;;;;5076937;28;20131;-68
2021/08/30 12:25:33;;;;;;;6.57;2.88;;;23.10;59.50;;;;;;5074987;28;20593;-67
2021/08/30 12:27:59;;;;;;;7.03;3.13;;;23.10;59.70;;;;;;5076173;28;20112;-66
2021/08/30 12:30:27;;;;;;;8.07;3.10;;;23.10;59.60;;;;;;5073872;28;20036;-67
2021/08/30 12:33:03;;;;;;;6.18;3.03;;;23.00;60.10;;;;;;5074675;28;20024;-67
2021/08/30 12:35:38;;;;;;;6.63;3.22;;;23.00;59.50;;;;;;5075258;28;20435;-68
2021/08/30 12:38:06;;;;;;;7.43;3.08;;;23.00;59.70;;;;;;5064042;28;20020;-68
2021/08/30 12:40:34;;;;;;;5.68;3.03;;;23.00;59.80;;;;;;5077064;28;20025;-66
2021/08/30 12:43:01;;;;;;;4.68;3.17;;;23.00;59.70;;;;;;5076449;28;20025;-68
2021/08/30 12:45:29;;;;;;;6.45;3.20;;;22.90;59.70;;;;;;5077071;28;20017;-67
2021/08/30 12:47:55;;;;;;;6.10;3.40;;;22.90;59.70;;;;;;5074973;28;20382;-67
2021/08/30 12:50:23;;;;;;;6.60;3.17;;;22.90;59.70;;;;;;5074390;28;20027;-67